sensor_id;sensor_type;location;lat;lon;timestamp;temperature;humidity
36458;DHT22;22480;50.546;12.292;2023-07-22T00:02:23;12.30;99.90
36458;DHT22;22480;50.546;12.292;2023-07-22T00:04:51;12.30;99.90
36458;DHT22;22480;50.546;12.292;2023-07-22T00:07:18;12.20;99.90
36458;DHT22;22480;50.546;12.292;2023-07-22T00:09:43;12.20;99.90
36458;DHT22;22480;50.546;12.292;2023-07-22T00:12:09;12.20;99.90
36458;DHT22;22480;50.546;12.292;2023-07-22T00:14:40;12.20;99.90
36458;DHT22;22480;50.546;12.292;2023-07-22T00:17:06;12.20;99.90
36458;DHT22;22480;50.546;12.292;2023-07-22T00:19:32;12.20;99.90
36458;DHT22;22480;50.546;12.292;2023-07-22T00:21:58;12.10;99.90
36458;DHT22;22480;50.546;12.292;2023-07-22T00:24:24;12.10;99.90
36458;DHT22;22480;50.546;12.292;2023-07-22T00:26:49;12.10;99.90
36458;DHT22;22480;50.546;12.292;2023-07-22T00:29:16;12.10;99.90
36458;DHT22;22480;50.546;12.292;2023-07-22T00:31:42;12.10;99.90
36458;DHT22;22480;50.546;12.292;2023-07-22T00:34:08;12.10;99.90
36458;DHT22;22480;50.546;12.292;2023-07-22T00:36:34;12.00;99.90
36458;DHT22;22480;50.546;12.292;2023-07-22T00:38:59;12.00;99.90
36458;DHT22;22480;50.546;12.292;2023-07-22T00:41:27;12.00;99.90
36458;DHT22;22480;50.546;12.292;2023-07-22T00:43:54;12.00;99.90
36458;DHT22;22480;50.546;12.292;2023-07-22T00:46:20;11.90;99.90
36458;DHT22;22480;50.546;12.292;2023-07-22T00:48:47;11.90;99.90
36458;DHT22;22480;50.546;12.292;2023-07-22T00:51:14;11.90;99.90
36458;DHT22;22480;50.546;12.292;2023-07-22T00:53:40;11.90;99.90
36458;DHT22;22480;50.546;12.292;2023-07-22T00:56:05;11.90;99.90
36458;DHT22;22480;50.546;12.292;2023-07-22T00:58:32;11.90;99.90
36458;DHT22;22480;50.546;12.292;2023-07-22T01:00:58;11.90;99.90
36458;DHT22;22480;50.546;12.292;2023-07-22T01:03:24;11.90;99.90
36458;DHT22;22480;50.546;12.292;2023-07-22T01:05:52;11.90;99.90
36458;DHT22;22480;50.546;12.292;2023-07-22T01:08:19;11.80;99.90
36458;DHT22;22480;50.546;12.292;2023-07-22T01:10:44;11.80;99.90
36458;DHT22;22480;50.546;12.292;2023-07-22T01:13:10;11.80;99.90
36458;DHT22;22480;50.546;12.292;2023-07-22T01:15:37;11.70;99.90
36458;DHT22;22480;50.546;12.292;2023-07-22T01:18:03;11.60;99.90
36458;DHT22;22480;50.546;12.292;2023-07-22T01:20:30;11.50;99.90
36458;DHT22;22480;50.546;12.292;2023-07-22T01:22:56;11.40;99.90
36458;DHT22;22480;50.546;12.292;2023-07-22T01:25:22;11.30;99.90
36458;DHT22;22480;50.546;12.292;2023-07-22T01:27:51;11.30;99.90
36458;DHT22;22480;50.546;12.292;2023-07-22T01:30:17;11.40;99.90
36458;DHT22;22480;50.546;12.292;2023-07-22T01:32:46;11.40;99.90
36458;DHT22;22480;50.546;12.292;2023-07-22T01:35:12;11.50;99.90
36458;DHT22;22480;50.546;12.292;2023-07-22T01:37:38;11.60;99.90
36458;DHT22;22480;50.546;12.292;2023-07-22T01:40:04;11.70;99.90
36458;DHT22;22480;50.546;12.292;2023-07-22T01:42:42;11.80;99.90
36458;DHT22;22480;50.546;12.292;2023-07-22T01:45:09;11.80;99.90
36458;DHT22;22480;50.546;12.292;2023-07-22T01:47:36;11.90;99.90
36458;DHT22;22480;50.546;12.292;2023-07-22T01:50:06;11.80;99.90
36458;DHT22;22480;50.546;12.292;2023-07-22T01:52:32;11.80;99.90
36458;DHT22;22480;50.546;12.292;2023-07-22T01:54:58;11.80;99.90
36458;DHT22;22480;50.546;12.292;2023-07-22T01:57:23;11.70;99.90
36458;DHT22;22480;50.546;12.292;2023-07-22T01:59:49;11.80;99.90
36458;DHT22;22480;50.546;12.292;2023-07-22T02:02:15;11.80;99.90
36458;DHT22;22480;50.546;12.292;2023-07-22T02:04:41;11.80;99.90
36458;DHT22;22480;50.546;12.292;2023-07-22T02:07:07;11.80;99.90
36458;DHT22;22480;50.546;12.292;2023-07-22T02:09:33;11.80;99.90
36458;DHT22;22480;50.546;12.292;2023-07-22T02:11:59;11.80;99.90
36458;DHT22;22480;50.546;12.292;2023-07-22T02:14:25;11.70;99.90
36458;DHT22;22480;50.546;12.292;2023-07-22T02:16:50;11.70;99.90
36458;DHT22;22480;50.546;12.292;2023-07-22T02:19:16;11.70;99.90
36458;DHT22;22480;50.546;12.292;2023-07-22T02:21:42;11.70;99.90
36458;DHT22;22480;50.546;12.292;2023-07-22T02:24:09;11.60;99.90
36458;DHT22;22480;50.546;12.292;2023-07-22T02:26:35;11.60;99.90
36458;DHT22;22480;50.546;12.292;2023-07-22T02:29:02;11.60;99.90
36458;DHT22;22480;50.546;12.292;2023-07-22T02:31:28;11.50;99.90
36458;DHT22;22480;50.546;12.292;2023-07-22T02:33:53;11.50;99.90
36458;DHT22;22480;50.546;12.292;2023-07-22T02:36:19;11.50;99.90
36458;DHT22;22480;50.546;12.292;2023-07-22T02:38:45;11.40;99.90
36458;DHT22;22480;50.546;12.292;2023-07-22T02:41:12;11.30;99.90
36458;DHT22;22480;50.546;12.292;2023-07-22T02:43:38;11.30;99.90
36458;DHT22;22480;50.546;12.292;2023-07-22T02:46:06;11.20;99.90
36458;DHT22;22480;50.546;12.292;2023-07-22T02:48:34;11.20;99.90
36458;DHT22;22480;50.546;12.292;2023-07-22T02:51:07;11.10;99.90
36458;DHT22;22480;50.546;12.292;2023-07-22T02:53:34;10.90;99.90
36458;DHT22;22480;50.546;12.292;2023-07-22T02:56:02;10.90;99.90
36458;DHT22;22480;50.546;12.292;2023-07-22T02:58:28;10.80;99.90
36458;DHT22;22480;50.546;12.292;2023-07-22T03:00:54;10.70;99.90
36458;DHT22;22480;50.546;12.292;2023-07-22T03:03:20;10.70;99.90
36458;DHT22;22480;50.546;12.292;2023-07-22T03:05:46;10.70;99.90
36458;DHT22;22480;50.546;12.292;2023-07-22T03:08:12;10.70;99.90
36458;DHT22;22480;50.546;12.292;2023-07-22T03:10:38;10.70;99.90
36458;DHT22;22480;50.546;12.292;2023-07-22T03:13:04;10.70;99.90
36458;DHT22;22480;50.546;12.292;2023-07-22T03:15:30;10.70;99.90
36458;DHT22;22480;50.546;12.292;2023-07-22T03:17:56;10.60;99.90
36458;DHT22;22480;50.546;12.292;2023-07-22T03:20:25;10.60;99.90
36458;DHT22;22480;50.546;12.292;2023-07-22T03:22:51;10.60;99.90
36458;DHT22;22480;50.546;12.292;2023-07-22T03:25:18;10.70;99.90
36458;DHT22;22480;50.546;12.292;2023-07-22T03:27:45;10.60;99.90
36458;DHT22;22480;50.546;12.292;2023-07-22T03:30:13;10.60;99.90
36458;DHT22;22480;50.546;12.292;2023-07-22T03:32:43;10.60;99.90
36458;DHT22;22480;50.546;12.292;2023-07-22T03:35:10;10.60;99.90
36458;DHT22;22480;50.546;12.292;2023-07-22T03:37:39;10.70;99.90
36458;DHT22;22480;50.546;12.292;2023-07-22T03:40:06;10.70;99.90
36458;DHT22;22480;50.546;12.292;2023-07-22T03:42:49;10.80;99.90
36458;DHT22;22480;50.546;12.292;2023-07-22T03:45:16;10.80;99.90
36458;DHT22;22480;50.546;12.292;2023-07-22T03:47:44;10.90;99.90
36458;DHT22;22480;50.546;12.292;2023-07-22T03:50:10;10.90;99.90
36458;DHT22;22480;50.546;12.292;2023-07-22T03:52:36;10.90;99.90
36458;DHT22;22480;50.546;12.292;2023-07-22T03:55:02;10.90;99.90
36458;DHT22;22480;50.546;12.292;2023-07-22T03:57:28;11.00;99.90
36458;DHT22;22480;50.546;12.292;2023-07-22T03:59:55;11.00;99.90
36458;DHT22;22480;50.546;12.292;2023-07-22T04:02:21;11.10;99.90
36458;DHT22;22480;50.546;12.292;2023-07-22T04:04:47;11.20;99.90
36458;DHT22;22480;50.546;12.292;2023-07-22T04:07:13;11.20;99.90
36458;DHT22;22480;50.546;12.292;2023-07-22T04:09:40;11.30;99.90
36458;DHT22;22480;50.546;12.292;2023-07-22T04:12:06;11.20;99.90
36458;DHT22;22480;50.546;12.292;2023-07-22T04:14:32;11.20;99.90
36458;DHT22;22480;50.546;12.292;2023-07-22T04:16:58;11.10;99.90
36458;DHT22;22480;50.546;12.292;2023-07-22T04:19:24;11.20;99.90
36458;DHT22;22480;50.546;12.292;2023-07-22T04:21:50;11.20;99.90
36458;DHT22;22480;50.546;12.292;2023-07-22T04:24:15;11.30;99.90
36458;DHT22;22480;50.546;12.292;2023-07-22T04:26:42;11.30;99.90
36458;DHT22;22480;50.546;12.292;2023-07-22T04:29:08;11.40;99.90
36458;DHT22;22480;50.546;12.292;2023-07-22T04:31:36;11.50;99.90
36458;DHT22;22480;50.546;12.292;2023-07-22T04:34:02;11.60;99.90
36458;DHT22;22480;50.546;12.292;2023-07-22T04:36:28;11.70;99.90
36458;DHT22;22480;50.546;12.292;2023-07-22T04:38:54;11.70;99.90
36458;DHT22;22480;50.546;12.292;2023-07-22T04:41:19;11.70;99.90
36458;DHT22;22480;50.546;12.292;2023-07-22T04:43:45;11.70;99.90
36458;DHT22;22480;50.546;12.292;2023-07-22T04:46:11;11.70;99.90
36458;DHT22;22480;50.546;12.292;2023-07-22T04:48:37;12.10;99.90
36458;DHT22;22480;50.546;12.292;2023-07-22T04:51:03;12.60;99.90
36458;DHT22;22480;50.546;12.292;2023-07-22T04:53:28;12.90;99.90
36458;DHT22;22480;50.546;12.292;2023-07-22T04:55:54;13.20;99.90
36458;DHT22;22480;50.546;12.292;2023-07-22T04:58:21;13.30;99.90
36458;DHT22;22480;50.546;12.292;2023-07-22T05:00:47;13.20;99.90
36458;DHT22;22480;50.546;12.292;2023-07-22T05:03:14;13.50;99.90
36458;DHT22;22480;50.546;12.292;2023-07-22T05:05:40;13.90;99.90
36458;DHT22;22480;50.546;12.292;2023-07-22T05:08:05;14.40;99.90
36458;DHT22;22480;50.546;12.292;2023-07-22T05:10:33;14.50;99.90
36458;DHT22;22480;50.546;12.292;2023-07-22T05:12:59;14.20;99.90
36458;DHT22;22480;50.546;12.292;2023-07-22T05:15:25;14.40;99.90
36458;DHT22;22480;50.546;12.292;2023-07-22T05:17:51;14.90;99.90
36458;DHT22;22480;50.546;12.292;2023-07-22T05:20:17;15.50;99.90
36458;DHT22;22480;50.546;12.292;2023-07-22T05:22:43;16.30;99.90
36458;DHT22;22480;50.546;12.292;2023-07-22T05:25:09;16.70;99.90
36458;DHT22;22480;50.546;12.292;2023-07-22T05:27:37;16.90;99.90
36458;DHT22;22480;50.546;12.292;2023-07-22T05:30:03;16.90;99.90
36458;DHT22;22480;50.546;12.292;2023-07-22T05:32:29;16.90;99.90
36458;DHT22;22480;50.546;12.292;2023-07-22T05:34:55;16.90;99.90
36458;DHT22;22480;50.546;12.292;2023-07-22T05:37:22;17.20;99.90
36458;DHT22;22480;50.546;12.292;2023-07-22T05:39:48;17.50;99.90
36458;DHT22;22480;50.546;12.292;2023-07-22T05:42:14;17.70;99.90
36458;DHT22;22480;50.546;12.292;2023-07-22T05:44:40;17.60;99.90
36458;DHT22;22480;50.546;12.292;2023-07-22T05:47:06;17.50;99.90
36458;DHT22;22480;50.546;12.292;2023-07-22T05:49:31;17.40;99.90
36458;DHT22;22480;50.546;12.292;2023-07-22T05:51:57;17.80;99.90
36458;DHT22;22480;50.546;12.292;2023-07-22T05:54:23;18.10;99.90
36458;DHT22;22480;50.546;12.292;2023-07-22T05:56:48;18.20;99.90
36458;DHT22;22480;50.546;12.292;2023-07-22T05:59:14;18.30;99.90
36458;DHT22;22480;50.546;12.292;2023-07-22T06:01:40;18.60;99.90
36458;DHT22;22480;50.546;12.292;2023-07-22T06:04:06;18.70;99.90
36458;DHT22;22480;50.546;12.292;2023-07-22T06:06:32;18.90;99.90
36458;DHT22;22480;50.546;12.292;2023-07-22T06:08:57;18.90;99.90
36458;DHT22;22480;50.546;12.292;2023-07-22T06:11:23;18.80;99.90
36458;DHT22;22480;50.546;12.292;2023-07-22T06:13:49;19.10;99.90
36458;DHT22;22480;50.546;12.292;2023-07-22T06:16:15;18.90;99.90
36458;DHT22;22480;50.546;12.292;2023-07-22T06:18:40;18.90;99.90
36458;DHT22;22480;50.546;12.292;2023-07-22T06:21:06;18.90;99.90
36458;DHT22;22480;50.546;12.292;2023-07-22T06:23:32;18.80;99.90
36458;DHT22;22480;50.546;12.292;2023-07-22T06:25:58;19.00;99.90
36458;DHT22;22480;50.546;12.292;2023-07-22T06:28:24;19.40;99.90
36458;DHT22;22480;50.546;12.292;2023-07-22T06:30:49;19.60;99.90
36458;DHT22;22480;50.546;12.292;2023-07-22T06:33:15;19.40;99.90
36458;DHT22;22480;50.546;12.292;2023-07-22T06:35:41;19.10;99.90
36458;DHT22;22480;50.546;12.292;2023-07-22T06:38:07;19.20;99.90
36458;DHT22;22480;50.546;12.292;2023-07-22T06:40:33;18.70;99.90
36458;DHT22;22480;50.546;12.292;2023-07-22T06:42:59;19.20;99.90
36458;DHT22;22480;50.546;12.292;2023-07-22T06:45:25;19.90;99.90
36458;DHT22;22480;50.546;12.292;2023-07-22T06:47:50;19.30;99.90
36458;DHT22;22480;50.546;12.292;2023-07-22T06:50:16;18.90;99.90
36458;DHT22;22480;50.546;12.292;2023-07-22T06:52:42;19.00;99.90
36458;DHT22;22480;50.546;12.292;2023-07-22T06:55:08;18.60;99.90
36458;DHT22;22480;50.546;12.292;2023-07-22T06:57:33;18.30;99.90
36458;DHT22;22480;50.546;12.292;2023-07-22T06:59:59;18.60;99.90
36458;DHT22;22480;50.546;12.292;2023-07-22T07:02:25;19.50;99.90
36458;DHT22;22480;50.546;12.292;2023-07-22T07:04:51;20.70;99.90
36458;DHT22;22480;50.546;12.292;2023-07-22T07:07:17;21.50;99.90
36458;DHT22;22480;50.546;12.292;2023-07-22T07:09:42;22.30;99.90
36458;DHT22;22480;50.546;12.292;2023-07-22T07:12:08;23.40;99.90
36458;DHT22;22480;50.546;12.292;2023-07-22T07:14:35;23.40;94.40
36458;DHT22;22480;50.546;12.292;2023-07-22T07:17:01;22.60;96.30
36458;DHT22;22480;50.546;12.292;2023-07-22T07:19:28;22.10;99.90
36458;DHT22;22480;50.546;12.292;2023-07-22T07:21:54;21.60;98.20
36458;DHT22;22480;50.546;12.292;2023-07-22T07:24:20;21.90;99.90
36458;DHT22;22480;50.546;12.292;2023-07-22T07:26:45;22.10;98.40
36458;DHT22;22480;50.546;12.292;2023-07-22T07:29:12;22.20;99.90
36458;DHT22;22480;50.546;12.292;2023-07-22T07:31:38;22.00;79.70
36458;DHT22;22480;50.546;12.292;2023-07-22T07:34:04;21.30;83.00
36458;DHT22;22480;50.546;12.292;2023-07-22T07:36:31;21.30;83.70
36458;DHT22;22480;50.546;12.292;2023-07-22T07:38:57;21.60;84.50
36458;DHT22;22480;50.546;12.292;2023-07-22T07:41:23;21.60;78.30
36458;DHT22;22480;50.546;12.292;2023-07-22T07:43:49;21.40;86.30
36458;DHT22;22480;50.546;12.292;2023-07-22T07:46:21;21.60;80.50
36458;DHT22;22480;50.546;12.292;2023-07-22T07:48:52;21.90;82.10
36458;DHT22;22480;50.546;12.292;2023-07-22T07:51:20;22.30;80.00
36458;DHT22;22480;50.546;12.292;2023-07-22T07:53:46;22.20;76.60
36458;DHT22;22480;50.546;12.292;2023-07-22T07:56:16;21.80;76.10
36458;DHT22;22480;50.546;12.292;2023-07-22T07:58:43;21.70;69.70
36458;DHT22;22480;50.546;12.292;2023-07-22T08:01:09;21.80;70.20
36458;DHT22;22480;50.546;12.292;2023-07-22T08:03:35;21.80;68.30
36458;DHT22;22480;50.546;12.292;2023-07-22T08:06:02;21.80;68.40
36458;DHT22;22480;50.546;12.292;2023-07-22T08:08:28;21.60;68.30
36458;DHT22;22480;50.546;12.292;2023-07-22T08:11:08;21.90;74.90
36458;DHT22;22480;50.546;12.292;2023-07-22T08:13:35;22.00;66.30
36458;DHT22;22480;50.546;12.292;2023-07-22T08:16:02;22.00;78.50
36458;DHT22;22480;50.546;12.292;2023-07-22T08:18:29;21.60;72.00
36458;DHT22;22480;50.546;12.292;2023-07-22T08:20:55;21.30;69.50
36458;DHT22;22480;50.546;12.292;2023-07-22T08:23:21;21.60;75.20
36458;DHT22;22480;50.546;12.292;2023-07-22T08:25:47;22.60;73.90
36458;DHT22;22480;50.546;12.292;2023-07-22T08:28:13;22.50;63.00
36458;DHT22;22480;50.546;12.292;2023-07-22T08:30:40;22.00;66.10
36458;DHT22;22480;50.546;12.292;2023-07-22T08:33:10;22.10;66.10
36458;DHT22;22480;50.546;12.292;2023-07-22T08:35:37;22.40;68.20
36458;DHT22;22480;50.546;12.292;2023-07-22T08:38:03;22.10;65.50
36458;DHT22;22480;50.546;12.292;2023-07-22T08:40:36;22.20;72.10
36458;DHT22;22480;50.546;12.292;2023-07-22T08:43:03;22.60;65.70
36458;DHT22;22480;50.546;12.292;2023-07-22T08:45:31;23.50;67.40
36458;DHT22;22480;50.546;12.292;2023-07-22T08:48:07;24.30;63.30
36458;DHT22;22480;50.546;12.292;2023-07-22T08:50:51;24.30;62.50
36458;DHT22;22480;50.546;12.292;2023-07-22T08:53:18;24.30;60.90
36458;DHT22;22480;50.546;12.292;2023-07-22T08:55:45;24.70;60.40
36458;DHT22;22480;50.546;12.292;2023-07-22T08:58:11;24.10;59.70
36458;DHT22;22480;50.546;12.292;2023-07-22T09:00:39;23.90;60.60
36458;DHT22;22480;50.546;12.292;2023-07-22T09:03:05;23.60;59.80
36458;DHT22;22480;50.546;12.292;2023-07-22T09:05:32;22.90;61.60
36458;DHT22;22480;50.546;12.292;2023-07-22T09:08:02;22.40;62.10
36458;DHT22;22480;50.546;12.292;2023-07-22T09:10:28;22.10;63.10
36458;DHT22;22480;50.546;12.292;2023-07-22T09:12:54;21.70;64.30
36458;DHT22;22480;50.546;12.292;2023-07-22T09:15:20;21.90;66.00
36458;DHT22;22480;50.546;12.292;2023-07-22T09:17:47;22.30;62.40
36458;DHT22;22480;50.546;12.292;2023-07-22T09:20:14;22.10;60.00
36458;DHT22;22480;50.546;12.292;2023-07-22T09:22:44;22.10;61.10
36458;DHT22;22480;50.546;12.292;2023-07-22T09:25:20;22.10;62.90
36458;DHT22;22480;50.546;12.292;2023-07-22T09:27:54;22.30;60.80
36458;DHT22;22480;50.546;12.292;2023-07-22T09:32:54;24.30;59.90
36458;DHT22;22480;50.546;12.292;2023-07-22T09:35:21;24.30;58.10
36458;DHT22;22480;50.546;12.292;2023-07-22T09:37:47;24.60;55.90
36458;DHT22;22480;50.546;12.292;2023-07-22T09:40:22;23.70;55.10
36458;DHT22;22480;50.546;12.292;2023-07-22T09:45:16;21.80;57.20
36458;DHT22;22480;50.546;12.292;2023-07-22T09:47:44;21.10;61.80
36458;DHT22;22480;50.546;12.292;2023-07-22T09:50:13;20.80;61.10
36458;DHT22;22480;50.546;12.292;2023-07-22T09:52:51;21.20;61.60
36458;DHT22;22480;50.546;12.292;2023-07-22T09:55:19;21.80;61.10
36458;DHT22;22480;50.546;12.292;2023-07-22T09:58:06;22.00;60.30
36458;DHT22;22480;50.546;12.292;2023-07-22T10:00:35;22.30;57.40
36458;DHT22;22480;50.546;12.292;2023-07-22T10:03:03;22.20;57.30
36458;DHT22;22480;50.546;12.292;2023-07-22T10:05:34;22.80;57.70
36458;DHT22;22480;50.546;12.292;2023-07-22T10:08:02;23.60;55.90
36458;DHT22;22480;50.546;12.292;2023-07-22T10:10:32;23.80;54.50
36458;DHT22;22480;50.546;12.292;2023-07-22T10:12:58;23.10;54.90
36458;DHT22;22480;50.546;12.292;2023-07-22T10:15:27;22.30;55.70
36458;DHT22;22480;50.546;12.292;2023-07-22T10:17:55;21.60;57.80
36458;DHT22;22480;50.546;12.292;2023-07-22T10:20:21;21.40;58.70
36458;DHT22;22480;50.546;12.292;2023-07-22T10:22:49;21.90;57.80
36458;DHT22;22480;50.546;12.292;2023-07-22T10:25:16;21.80;57.30
36458;DHT22;22480;50.546;12.292;2023-07-22T10:27:43;21.80;56.80
36458;DHT22;22480;50.546;12.292;2023-07-22T10:30:11;22.00;57.80
36458;DHT22;22480;50.546;12.292;2023-07-22T10:32:48;22.40;56.90
36458;DHT22;22480;50.546;12.292;2023-07-22T10:38:09;23.20;54.90
36458;DHT22;22480;50.546;12.292;2023-07-22T10:40:53;23.30;54.70
36458;DHT22;22480;50.546;12.292;2023-07-22T10:43:32;22.80;56.10
36458;DHT22;22480;50.546;12.292;2023-07-22T10:46:12;22.50;57.40
36458;DHT22;22480;50.546;12.292;2023-07-22T10:48:40;22.20;58.10
36458;DHT22;22480;50.546;12.292;2023-07-22T10:51:12;22.30;57.90
36458;DHT22;22480;50.546;12.292;2023-07-22T10:56:17;23.90;53.10
36458;DHT22;22480;50.546;12.292;2023-07-22T11:12:06;24.30;52.00
36458;DHT22;22480;50.546;12.292;2023-07-22T11:14:34;23.40;53.70
36458;DHT22;22480;50.546;12.292;2023-07-22T11:17:04;22.90;53.90
36458;DHT22;22480;50.546;12.292;2023-07-22T11:19:30;22.80;55.10
36458;DHT22;22480;50.546;12.292;2023-07-22T11:21:56;22.70;56.00
36458;DHT22;22480;50.546;12.292;2023-07-22T11:24:23;22.60;56.10
36458;DHT22;22480;50.546;12.292;2023-07-22T11:26:51;22.40;56.30
36458;DHT22;22480;50.546;12.292;2023-07-22T11:29:17;22.70;55.60
36458;DHT22;22480;50.546;12.292;2023-07-22T11:31:45;23.20;56.20
36458;DHT22;22480;50.546;12.292;2023-07-22T11:34:19;24.20;54.30
36458;DHT22;22480;50.546;12.292;2023-07-22T11:36:47;23.90;52.70
36458;DHT22;22480;50.546;12.292;2023-07-22T11:39:17;23.30;54.70
36458;DHT22;22480;50.546;12.292;2023-07-22T11:41:44;23.10;55.70
36458;DHT22;22480;50.546;12.292;2023-07-22T11:44:12;22.80;55.80
36458;DHT22;22480;50.546;12.292;2023-07-22T11:47:03;22.70;55.10
36458;DHT22;22480;50.546;12.292;2023-07-22T11:49:35;22.60;56.50
36458;DHT22;22480;50.546;12.292;2023-07-22T11:52:06;22.50;56.60
36458;DHT22;22480;50.546;12.292;2023-07-22T11:54:34;22.30;55.80
36458;DHT22;22480;50.546;12.292;2023-07-22T11:57:22;21.80;55.80
36458;DHT22;22480;50.546;12.292;2023-07-22T11:59:52;21.60;57.80
36458;DHT22;22480;50.546;12.292;2023-07-22T12:02:23;21.40;58.20
36458;DHT22;22480;50.546;12.292;2023-07-22T12:04:57;21.20;58.50
36458;DHT22;22480;50.546;12.292;2023-07-22T12:07:24;21.10;58.80
36458;DHT22;22480;50.546;12.292;2023-07-22T12:09:53;21.20;59.30
36458;DHT22;22480;50.546;12.292;2023-07-22T12:12:18;21.20;59.10
36458;DHT22;22480;50.546;12.292;2023-07-22T12:14:44;21.30;59.70
36458;DHT22;22480;50.546;12.292;2023-07-22T12:17:10;21.40;59.40
36458;DHT22;22480;50.546;12.292;2023-07-22T12:19:36;21.80;59.60
36458;DHT22;22480;50.546;12.292;2023-07-22T12:22:02;22.40;58.20
36458;DHT22;22480;50.546;12.292;2023-07-22T12:24:28;22.60;57.10
36458;DHT22;22480;50.546;12.292;2023-07-22T12:26:54;22.30;57.80
36458;DHT22;22480;50.546;12.292;2023-07-22T12:29:20;21.80;58.20
36458;DHT22;22480;50.546;12.292;2023-07-22T12:31:47;21.60;58.30
36458;DHT22;22480;50.546;12.292;2023-07-22T12:34:13;21.30;58.70
36458;DHT22;22480;50.546;12.292;2023-07-22T12:36:40;21.40;59.00
36458;DHT22;22480;50.546;12.292;2023-07-22T12:39:06;21.80;59.90
36458;DHT22;22480;50.546;12.292;2023-07-22T12:41:32;23.00;59.40
36458;DHT22;22480;50.546;12.292;2023-07-22T12:43:58;23.30;56.70
36458;DHT22;22480;50.546;12.292;2023-07-22T12:46:23;23.00;56.40
36458;DHT22;22480;50.546;12.292;2023-07-22T12:48:49;22.60;57.30
36458;DHT22;22480;50.546;12.292;2023-07-22T12:51:15;22.30;58.90
36458;DHT22;22480;50.546;12.292;2023-07-22T12:53:41;22.50;58.70
36458;DHT22;22480;50.546;12.292;2023-07-22T12:56:06;23.00;58.80
36458;DHT22;22480;50.546;12.292;2023-07-22T12:58:32;24.00;56.90
36458;DHT22;22480;50.546;12.292;2023-07-22T13:00:59;24.50;55.10
36458;DHT22;22480;50.546;12.292;2023-07-22T13:03:24;24.60;54.50
36458;DHT22;22480;50.546;12.292;2023-07-22T13:05:50;25.00;54.70
36458;DHT22;22480;50.546;12.292;2023-07-22T13:08:16;24.90;55.80
36458;DHT22;22480;50.546;12.292;2023-07-22T13:10:42;25.20;55.80
36458;DHT22;22480;50.546;12.292;2023-07-22T13:13:10;25.30;54.20
36458;DHT22;22480;50.546;12.292;2023-07-22T13:15:36;25.60;52.80
36458;DHT22;22480;50.546;12.292;2023-07-22T13:18:02;25.30;53.10
36458;DHT22;22480;50.546;12.292;2023-07-22T13:20:29;25.20;53.80
36458;DHT22;22480;50.546;12.292;2023-07-22T13:22:55;25.10;53.90
36458;DHT22;22480;50.546;12.292;2023-07-22T13:25:21;25.30;53.80
36458;DHT22;22480;50.546;12.292;2023-07-22T13:27:47;25.40;54.50
36458;DHT22;22480;50.546;12.292;2023-07-22T13:30:12;25.30;54.40
36458;DHT22;22480;50.546;12.292;2023-07-22T13:32:39;24.70;54.80
36458;DHT22;22480;50.546;12.292;2023-07-22T13:35:05;24.30;54.80
36458;DHT22;22480;50.546;12.292;2023-07-22T13:37:31;23.60;56.20
36458;DHT22;22480;50.546;12.292;2023-07-22T13:39:57;23.10;56.90
36458;DHT22;22480;50.546;12.292;2023-07-22T13:42:24;22.90;57.50
36458;DHT22;22480;50.546;12.292;2023-07-22T13:44:50;23.20;57.70
36458;DHT22;22480;50.546;12.292;2023-07-22T13:47:16;23.40;58.70
36458;DHT22;22480;50.546;12.292;2023-07-22T13:49:41;24.10;58.40
36458;DHT22;22480;50.546;12.292;2023-07-22T13:52:07;24.20;56.10
36458;DHT22;22480;50.546;12.292;2023-07-22T13:54:33;24.00;55.80
36458;DHT22;22480;50.546;12.292;2023-07-22T13:56:58;24.00;56.50
36458;DHT22;22480;50.546;12.292;2023-07-22T13:59:24;23.80;56.60
36458;DHT22;22480;50.546;12.292;2023-07-22T14:01:50;23.60;58.00
36458;DHT22;22480;50.546;12.292;2023-07-22T14:04:16;23.70;58.20
36458;DHT22;22480;50.546;12.292;2023-07-22T14:06:41;24.30;56.50
36458;DHT22;22480;50.546;12.292;2023-07-22T14:09:07;24.60;55.00
36458;DHT22;22480;50.546;12.292;2023-07-22T14:11:33;25.00;54.60
36458;DHT22;22480;50.546;12.292;2023-07-22T14:13:59;25.30;55.30
36458;DHT22;22480;50.546;12.292;2023-07-22T14:16:24;25.30;55.40
36458;DHT22;22480;50.546;12.292;2023-07-22T14:18:50;25.20;56.30
36458;DHT22;22480;50.546;12.292;2023-07-22T14:21:18;25.30;55.20
36458;DHT22;22480;50.546;12.292;2023-07-22T14:23:44;24.90;54.90
36458;DHT22;22480;50.546;12.292;2023-07-22T14:26:10;24.70;54.90
36458;DHT22;22480;50.546;12.292;2023-07-22T14:28:36;24.50;55.80
36458;DHT22;22480;50.546;12.292;2023-07-22T14:31:02;24.60;57.00
36458;DHT22;22480;50.546;12.292;2023-07-22T14:33:27;25.10;57.40
36458;DHT22;22480;50.546;12.292;2023-07-22T14:35:53;25.50;55.30
36458;DHT22;22480;50.546;12.292;2023-07-22T14:38:19;25.40;55.30
36458;DHT22;22480;50.546;12.292;2023-07-22T14:40:45;25.70;56.50
36458;DHT22;22480;50.546;12.292;2023-07-22T14:43:11;26.60;55.00
36458;DHT22;22480;50.546;12.292;2023-07-22T14:45:36;26.70;52.70
36458;DHT22;22480;50.546;12.292;2023-07-22T14:48:02;27.00;52.90
36458;DHT22;22480;50.546;12.292;2023-07-22T14:50:28;27.40;53.10
36458;DHT22;22480;50.546;12.292;2023-07-22T14:52:54;27.60;53.50
36458;DHT22;22480;50.546;12.292;2023-07-22T14:55:19;27.10;52.20
36458;DHT22;22480;50.546;12.292;2023-07-22T14:57:45;25.80;54.40
36458;DHT22;22480;50.546;12.292;2023-07-22T15:00:12;24.60;57.20
36458;DHT22;22480;50.546;12.292;2023-07-22T15:02:39;24.10;57.80
36458;DHT22;22480;50.546;12.292;2023-07-22T15:05:05;23.50;59.20
36458;DHT22;22480;50.546;12.292;2023-07-22T15:07:31;23.20;59.70
36458;DHT22;22480;50.546;12.292;2023-07-22T15:10:00;23.10;61.10
36458;DHT22;22480;50.546;12.292;2023-07-22T15:12:26;23.20;59.90
36458;DHT22;22480;50.546;12.292;2023-07-22T15:14:51;23.40;59.10
36458;DHT22;22480;50.546;12.292;2023-07-22T15:17:17;23.80;57.90
36458;DHT22;22480;50.546;12.292;2023-07-22T15:19:43;23.90;57.70
36458;DHT22;22480;50.546;12.292;2023-07-22T15:22:08;23.70;56.80
36458;DHT22;22480;50.546;12.292;2023-07-22T15:24:34;23.70;56.90
36458;DHT22;22480;50.546;12.292;2023-07-22T15:27:00;23.70;57.50
36458;DHT22;22480;50.546;12.292;2023-07-22T15:29:26;23.80;57.20
36458;DHT22;22480;50.546;12.292;2023-07-22T15:31:51;23.70;57.30
36458;DHT22;22480;50.546;12.292;2023-07-22T15:34:17;23.50;58.80
36458;DHT22;22480;50.546;12.292;2023-07-22T15:36:43;23.60;58.50
36458;DHT22;22480;50.546;12.292;2023-07-22T15:39:09;23.20;57.40